Time;durP1;ratioP1;P1;durP2;ratioP2;P2;SDS_P1;SDS_P2;PMS_P1;PMS_P2;Temp;Humidity;BMP_temperature;BMP_pressure;BME280_temperature;BME280_humidity;BME280_pressure;Samples;Min_cycle;Max_cycle;Signal;HPM_P1;HPM_P2
2022/02/05 00:01:23;;;;;;;9.23;4.13;;;;;;;3.32;100.00;99730.69;5063567;28;20196;-78
2022/02/05 00:03:57;;;;;;;8.93;4.00;;;;;;;3.40;100.00;99730.53;5062979;28;20286;-78
2022/02/05 00:06:29;;;;;;;6.63;5.07;;;;;;;3.46;100.00;99725.91;5070384;28;20713;-77
2022/02/05 00:09:05;;;;;;;6.88;4.43;;;;;;;3.62;100.00;99737.00;5070835;28;20654;-76
2022/02/05 00:42:09;;;;;;;6.03;4.10;;;;;;;2.96;100.00;99752.00;5037856;28;20186;-78
2022/02/05 00:44:37;;;;;;;12.25;5.43;;;;;;;3.00;100.00;99744.84;5062683;28;20187;-78
2022/02/05 00:47:05;;;;;;;10.02;4.45;;;;;;;2.97;100.00;99751.13;5070518;28;20208;-76
2022/02/05 00:49:31;;;;;;;4.68;3.83;;;;;;;3.04;100.00;99754.50;5061535;28;20700;-76
2022/02/05 00:52:05;;;;;;;5.45;4.07;;;;;;;2.97;100.00;99760.88;5070467;28;20256;-77
2022/02/05 00:54:32;;;;;;;7.22;4.20;;;;;;;2.96;100.00;99764.44;5069648;28;20701;-77
2022/02/05 00:57:20;;;;;;;5.15;3.70;;;;;;;3.05;100.00;99766.88;5070138;28;20190;-77
2022/02/05 00:59:48;;;;;;;6.60;5.95;;;;;;;2.93;100.00;99776.91;5059162;28;20282;-77
2022/02/05 01:02:15;;;;;;;6.25;4.40;;;;;;;2.88;100.00;99785.91;5053025;28;20221;-78
2022/02/05 01:04:41;;;;;;;6.82;4.28;;;;;;;3.16;100.00;99782.59;5068137;28;20285;-77
2022/02/05 01:07:08;;;;;;;7.00;4.68;;;;;;;3.32;100.00;99782.16;5069448;28;20282;-76
2022/02/05 01:09:35;;;;;;;4.95;4.20;;;;;;;3.17;100.00;99785.22;5069737;28;20194;-78
2022/02/05 01:12:02;;;;;;;5.32;4.45;;;;;;;3.13;100.00;99781.75;5069828;28;20355;-76
2022/02/05 01:14:40;;;;;;;8.70;4.65;;;;;;;3.07;100.00;99787.22;5069688;28;20196;-78
2022/02/05 01:17:10;;;;;;;6.47;4.50;;;;;;;3.06;100.00;99792.59;5070031;28;20194;-76
2022/02/05 01:22:21;;;;;;;6.05;3.83;;;;;;;2.98;100.00;99792.75;5071308;28;20262;-77
2022/02/05 01:24:50;;;;;;;6.07;4.47;;;;;;;3.06;100.00;99809.41;5074255;28;20200;-76
2022/02/05 01:27:28;;;;;;;6.95;5.28;;;;;;;2.99;100.00;99815.81;5073194;28;20193;-77
2022/02/05 01:30:07;;;;;;;7.78;4.57;;;;;;;3.08;100.00;99818.22;5073555;28;20556;-77
2022/02/05 01:32:38;;;;;;;4.50;3.13;;;;;;;3.03;100.00;99806.84;5073545;28;20207;-77
2022/02/05 01:35:11;;;;;;;5.07;3.58;;;;;;;2.93;100.00;99813.28;5071876;28;20217;-76
2022/02/05 01:51:22;;;;;;;6.43;4.07;;;;;;;2.92;100.00;99830.16;5068718;28;20196;-76
2022/02/05 01:54:13;;;;;;;5.00;3.70;;;;;;;2.99;100.00;99817.59;5072737;28;20206;-77
2022/02/05 01:56:44;;;;;;;6.03;3.47;;;;;;;2.83;100.00;99828.59;5072744;28;20245;-77
2022/02/05 01:59:19;;;;;;;7.13;4.13;;;;;;;2.96;100.00;99836.25;5073865;28;20184;-77
2022/02/05 02:04:51;;;;;;;5.93;3.63;;;;;;;2.88;100.00;99834.66;5073161;28;20208;-77
2022/02/05 02:10:49;;;;;;;7.45;4.00;;;;;;;2.90;100.00;99842.63;5064578;28;20199;-75
2022/02/05 02:13:44;;;;;;;5.38;3.30;;;;;;;3.00;100.00;99843.25;5059312;28;20217;-77
2022/02/05 02:16:23;;;;;;;7.88;3.50;;;;;;;3.04;100.00;99855.59;5065069;28;20190;-77
2022/02/05 02:19:01;;;;;;;5.40;3.30;;;;;;;3.10;100.00;99850.13;5072064;28;20215;-78
2022/02/05 02:21:36;;;;;;;4.95;3.50;;;;;;;2.85;100.00;99855.13;5072527;28;20185;-78
2022/02/05 02:24:09;;;;;;;8.95;4.55;;;;;;;3.11;100.00;99854.53;5071778;28;20186;-77
2022/02/05 02:26:48;;;;;;;7.53;3.72;;;;;;;2.97;100.00;99849.53;5062248;28;20596;-77
2022/02/05 02:29:19;;;;;;;13.45;4.75;;;;;;;2.81;100.00;99848.16;5068439;28;20239;-78
2022/02/05 02:31:49;;;;;;;6.35;4.10;;;;;;;2.77;100.00;99852.66;5071745;28;20190;-78
2022/02/05 02:34:21;;;;;;;8.02;4.25;;;;;;;2.95;100.00;99856.69;5071956;28;20348;-76
2022/02/05 02:36:54;;;;;;;7.25;4.00;;;;;;;3.01;100.00;99859.19;5071780;28;20650;-78
2022/02/05 02:39:25;;;;;;;5.07;3.17;;;;;;;3.06;100.00;99861.75;5071802;28;20269;-77
2022/02/05 02:41:57;;;;;;;7.78;3.58;;;;;;;3.10;100.00;99866.97;5072648;28;20542;-76
2022/02/05 02:44:24;;;;;;;5.30;3.10;;;;;;;3.20;100.00;99870.28;5071668;28;20201;-77
2022/02/05 02:46:50;;;;;;;6.65;3.55;;;;;;;3.21;100.00;99864.06;5071692;28;20196;-78
2022/02/05 02:49:26;;;;;;;11.90;4.75;;;;;;;3.05;100.00;99873.28;5071090;28;20229;-77
2022/02/05 02:57:24;;;;;;;6.20;4.10;;;;;;;2.27;100.00;99895.31;5072257;28;20192;-76
2022/02/05 02:59:54;;;;;;;9.82;4.28;;;;;;;2.07;100.00;99886.88;5069025;28;20288;-76
2022/02/05 03:02:24;;;;;;;10.07;4.22;;;;;;;1.93;100.00;99888.91;5060652;28;20273;-77
2022/02/05 03:04:53;;;;;;;5.95;4.43;;;;;;;1.98;100.00;99890.56;5065942;28;20682;-77
2022/02/05 03:07:21;;;;;;;8.43;4.15;;;;;;;1.91;100.00;99891.59;5069861;28;20270;-77
2022/02/05 03:09:48;;;;;;;7.00;4.25;;;;;;;1.71;100.00;99899.03;5071907;28;20193;-77
2022/02/05 03:12:15;;;;;;;7.93;4.05;;;;;;;1.77;100.00;99902.47;5069784;28;20224;-77
2022/02/05 03:14:42;;;;;;;7.45;4.03;;;;;;;1.79;100.00;99903.31;5072000;28;20195;-77
2022/02/05 03:17:19;;;;;;;6.57;3.97;;;;;;;1.68;100.00;99907.91;5071794;28;20193;-77
2022/02/05 03:19:50;;;;;;;5.50;3.90;;;;;;;1.82;100.00;99915.66;5064386;28;20193;-77
2022/02/05 03:22:18;;;;;;;9.63;4.18;;;;;;;1.65;100.00;99915.91;5064942;28;20189;-77
2022/02/05 03:24:47;;;;;;;7.63;4.85;;;;;;;1.78;100.00;99912.16;5071517;28;20632;-76
2022/02/05 03:27:15;;;;;;;4.93;4.30;;;;;;;1.95;100.00;99918.97;5070683;28;20208;-77
2022/02/05 03:29:47;;;;;;;5.40;3.50;;;;;;;2.16;100.00;99926.53;5064713;28;20216;-77
2022/02/05 03:32:13;;;;;;;12.77;4.50;;;;;;;2.11;100.00;99925.75;5070293;28;20197;-76
2022/02/05 03:34:40;;;;;;;6.20;4.30;;;;;;;2.17;100.00;99936.28;5070008;28;20235;-78
2022/02/05 03:37:07;;;;;;;8.55;4.43;;;;;;;1.96;100.00;99948.13;5070092;28;20189;-76
2022/02/05 03:39:34;;;;;;;8.98;4.93;;;;;;;1.74;100.00;99947.66;5071678;28;20234;-77
2022/02/05 03:42:03;;;;;;;7.22;4.40;;;;;;;1.44;100.00;99946.34;5070850;28;20272;-76
2022/02/05 03:44:30;;;;;;;6.40;4.45;;;;;;;1.58;100.00;99946.13;5069251;28;20189;-76
2022/02/05 03:46:57;;;;;;;7.60;4.53;;;;;;;1.67;100.00;99945.97;5071534;28;20203;-76
2022/02/05 03:49:24;;;;;;;8.52;4.15;;;;;;;1.57;100.00;99960.31;5070786;28;20288;-77
2022/02/05 03:51:52;;;;;;;7.70;4.55;;;;;;;1.62;100.00;99959.31;5071440;28;20201;-77
2022/02/05 03:54:20;;;;;;;6.32;4.63;;;;;;;1.48;100.00;99960.47;5070571;28;20211;-77
2022/02/05 03:56:47;;;;;;;7.13;3.97;;;;;;;1.39;100.00;99965.00;5071031;28;20188;-76
2022/02/05 03:59:16;;;;;;;7.30;4.95;;;;;;;1.47;100.00;99967.53;5070661;28;20197;-76
2022/02/05 04:01:43;;;;;;;4.55;4.10;;;;;;;1.40;100.00;99968.50;5070856;28;20649;-76
2022/02/05 04:04:10;;;;;;;8.50;3.88;;;;;;;1.42;100.00;99974.69;5062448;28;20245;-76
2022/02/05 04:06:38;;;;;;;6.07;4.38;;;;;;;1.41;100.00;99964.97;5070170;28;20289;-76
2022/02/05 04:09:08;;;;;;;8.82;4.53;;;;;;;1.59;100.00;99961.16;5070811;28;20271;-76
2022/02/05 04:11:49;;;;;;;5.88;4.35;;;;;;;1.44;100.00;99964.91;5059729;28;20198;-76
2022/02/05 04:17:01;;;;;;;6.22;4.00;;;;;;;1.43;100.00;99973.78;5070897;28;20199;-75
2022/02/05 04:19:28;;;;;;;7.45;4.57;;;;;;;1.40;100.00;99980.03;5069949;28;20250;-76
2022/02/05 04:21:55;;;;;;;5.47;4.10;;;;;;;1.28;100.00;99969.56;5070996;28;20193;-77
2022/02/05 04:24:21;;;;;;;6.97;4.65;;;;;;;1.19;100.00;99977.66;5070611;28;20201;-77
2022/02/05 04:26:48;;;;;;;9.77;4.30;;;;;;;1.28;100.00;99976.66;5070563;28;20195;-76
2022/02/05 04:29:16;;;;;;;6.13;4.38;;;;;;;1.19;100.00;99985.63;5070720;28;20228;-77
2022/02/05 04:31:43;;;;;;;4.85;4.38;;;;;;;1.31;100.00;99989.88;5071583;28;20193;-77
2022/02/05 04:34:10;;;;;;;6.72;5.00;;;;;;;1.09;100.00;99997.28;5070217;28;20588;-76
2022/02/05 04:36:37;;;;;;;7.93;4.82;;;;;;;1.14;100.00;99995.44;5069398;28;20189;-77
2022/02/05 04:39:09;;;;;;;5.03;4.38;;;;;;;1.25;100.00;99997.03;5069888;28;20232;-77
2022/02/05 04:41:43;;;;;;;7.00;4.60;;;;;;;1.33;100.00;100001.34;5070879;28;20189;-76
2022/02/05 04:44:21;;;;;;;12.02;5.13;;;;;;;1.13;100.00;99991.91;5069903;28;20549;-76
2022/02/05 04:58:00;;;;;;;7.07;4.05;;;;;;;1.12;100.00;100002.53;5032470;28;20224;-76
2022/02/05 05:06:14;;;;;;;7.93;4.50;;;;;;;0.99;100.00;100010.63;5073927;28;20200;-77
2022/02/05 05:08:47;;;;;;;7.15;4.25;;;;;;;1.02;100.00;100012.38;5070691;28;20216;-77
2022/02/05 05:19:38;;;;;;;4.32;3.80;;;;;;;0.96;100.00;100015.97;5073840;28;20239;-76
2022/02/05 05:22:05;;;;;;;10.15;4.20;;;;;;;0.90;100.00;100015.16;5073227;28;20185;-76
2022/02/05 05:24:32;;;;;;;7.72;3.80;;;;;;;0.86;100.00;100011.69;5073716;28;20648;-76
2022/02/05 05:26:59;;;;;;;4.65;3.67;;;;;;;0.93;100.00;100021.31;5073146;28;20196;-75
2022/02/05 05:29:25;;;;;;;9.48;3.65;;;;;;;0.97;100.00;100019.50;5074124;28;20189;-77
2022/02/05 05:31:52;;;;;;;7.03;4.20;;;;;;;0.93;100.00;100013.38;5072421;28;20192;-75
2022/02/05 05:34:19;;;;;;;12.93;4.05;;;;;;;1.32;100.00;100019.06;5071890;28;20204;-76
2022/02/05 05:36:48;;;;;;;7.80;3.50;;;;;;;1.11;100.00;100017.56;5071086;28;20207;-78
2022/02/05 05:39:14;;;;;;;3.88;3.17;;;;;;;1.31;100.00;100019.97;5062136;28;20283;-76
2022/02/05 05:41:42;;;;;;;8.57;4.13;;;;;;;1.52;100.00;100031.16;5070900;28;20269;-76
2022/02/05 05:46:52;;;;;;;8.57;4.35;;;;;;;1.51;100.00;100011.69;5069918;28;20196;-76
2022/02/05 05:49:22;;;;;;;9.75;4.93;;;;;;;1.71;100.00;100021.16;5073556;28;20191;-76
2022/02/05 05:51:50;;;;;;;11.52;3.90;;;;;;;1.59;100.00;100022.22;5073697;28;20546;-79
2022/02/05 05:54:17;;;;;;;13.40;4.78;;;;;;;1.70;100.00;100025.59;5074503;28;20208;-76
2022/02/05 05:56:46;;;;;;;9.02;5.13;;;;;;;1.86;100.00;100026.22;5073072;28;20559;-76
2022/02/05 05:59:14;;;;;;;6.72;5.03;;;;;;;1.94;100.00;100026.09;5073588;28;20181;-76
2022/02/05 06:01:40;;;;;;;9.32;5.45;;;;;;;1.79;100.00;100025.44;5072267;28;20218;-76
2022/02/05 06:04:07;;;;;;;10.70;5.53;;;;;;;1.86;100.00;100026.22;5072365;28;20195;-76
2022/02/05 06:06:34;;;;;;;6.72;4.10;;;;;;;2.11;100.00;100029.34;5072644;28;20277;-76
2022/02/05 06:09:02;;;;;;;6.22;5.10;;;;;;;2.19;100.00;100022.13;5067255;28;20289;-76
2022/02/05 06:11:29;;;;;;;5.82;5.00;;;;;;;2.40;100.00;100026.19;5060569;28;20272;-76
2022/02/05 06:13:56;;;;;;;9.73;5.07;;;;;;;2.36;100.00;100023.63;5064922;28;20674;-77
2022/02/05 06:16:29;;;;;;;10.15;5.55;;;;;;;2.34;100.00;100033.41;5058650;28;20214;-80
2022/02/05 06:18:56;;;;;;;6.63;4.90;;;;;;;2.40;100.00;100033.31;5061099;28;20184;-80
2022/02/05 06:21:23;;;;;;;6.70;4.63;;;;;;;2.16;100.00;100039.91;5068959;28;20283;-80
2022/02/05 06:23:50;;;;;;;7.35;5.50;;;;;;;1.99;100.00;100038.41;5061777;28;20276;-80
2022/02/05 06:26:18;;;;;;;7.68;5.13;;;;;;;1.97;100.00;100042.88;5060363;28;20697;-77
2022/02/05 06:28:45;;;;;;;6.75;5.18;;;;;;;2.19;100.00;100045.16;5063254;28;20585;-79
2022/02/05 06:31:11;;;;;;;8.32;4.30;;;;;;;2.28;100.00;100045.91;5061811;28;20647;-80
2022/02/05 06:33:38;;;;;;;9.63;5.70;;;;;;;2.37;100.00;100049.28;5069007;28;20215;-79
2022/02/05 06:36:05;;;;;;;8.27;5.40;;;;;;;2.50;100.00;100059.66;5059793;28;20197;-80
2022/02/05 06:38:32;;;;;;;10.48;5.25;;;;;;;2.45;100.00;100058.00;5062193;28;20274;-79
2022/02/05 06:40:58;;;;;;;7.68;4.15;;;;;;;2.40;100.00;100065.19;5053075;28;20281;-80
2022/02/05 06:43:26;;;;;;;7.22;5.43;;;;;;;2.44;100.00;100059.81;5068238;28;20199;-80
2022/02/05 06:45:53;;;;;;;8.45;5.68;;;;;;;2.34;100.00;100055.53;5064988;28;20217;-78
2022/02/05 06:48:20;;;;;;;10.02;5.65;;;;;;;2.34;100.00;100062.63;5057550;28;20193;-81
2022/02/05 06:50:47;;;;;;;8.02;5.07;;;;;;;2.50;100.00;100061.47;5066082;28;20234;-78
2022/02/05 06:53:14;;;;;;;7.00;5.35;;;;;;;2.84;100.00;100066.16;5064383;28;20268;-81
2022/02/05 06:55:40;;;;;;;11.52;5.25;;;;;;;2.87;100.00;100074.97;5061786;28;20237;-81
2022/02/05 06:58:07;;;;;;;10.48;6.55;;;;;;;2.89;100.00;100064.28;5060649;28;20207;-78
2022/02/05 07:00:35;;;;;;;7.20;5.78;;;;;;;2.85;100.00;100075.88;5060238;28;20290;-79
2022/02/05 07:03:02;;;;;;;12.00;6.38;;;;;;;2.68;100.00;100085.06;5061095;28;20638;-77
2022/02/05 07:05:29;;;;;;;6.82;5.10;;;;;;;2.67;100.00;100078.00;5054402;28;20227;-78
2022/02/05 07:07:55;;;;;;;9.30;6.10;;;;;;;2.90;100.00;100092.66;5057945;28;20191;-78
2022/02/05 07:10:22;;;;;;;5.90;5.30;;;;;;;3.05;100.00;100100.34;5059548;28;20602;-78
2022/02/05 07:13:02;;;;;;;9.88;6.32;;;;;;;3.09;100.00;100096.69;5067238;28;20655;-78
2022/02/05 07:15:32;;;;;;;9.88;6.03;;;;;;;2.97;100.00;100098.72;5059642;28;20606;-79
2022/02/05 07:18:11;;;;;;;8.18;5.65;;;;;;;3.02;100.00;100095.06;5064928;28;20181;-79
2022/02/05 07:20:42;;;;;;;6.35;5.53;;;;;;;2.96;100.00;100091.63;5062180;28;20217;-78
2022/02/05 07:31:18;;;;;;;10.80;6.35;;;;;;;3.18;100.00;100103.63;5069378;28;20242;-79
2022/02/05 07:33:47;;;;;;;10.00;5.43;;;;;;;3.27;100.00;100111.41;5073437;28;20259;-77
2022/02/05 07:36:16;;;;;;;9.18;6.70;;;;;;;3.18;100.00;100116.06;5071213;28;20240;-77
2022/02/05 07:38:43;;;;;;;9.45;7.05;;;;;;;3.20;100.00;100114.25;5068649;28;20221;-79
2022/02/05 07:41:10;;;;;;;12.48;7.20;;;;;;;3.02;100.00;100118.13;5071273;28;20523;-78
2022/02/05 07:43:36;;;;;;;10.82;7.55;;;;;;;3.32;100.00;100127.28;5071984;28;20595;-79
2022/02/05 07:46:04;;;;;;;9.60;7.03;;;;;;;3.52;100.00;100114.44;5068665;28;20209;-80
2022/02/05 07:48:31;;;;;;;12.98;6.97;;;;;;;3.54;100.00;100123.28;5062102;28;20199;-80
2022/02/05 07:51:00;;;;;;;13.73;7.90;;;;;;;3.61;100.00;100123.16;5063184;28;20276;-81
2022/02/05 07:53:27;;;;;;;9.85;7.10;;;;;;;3.41;100.00;100121.78;5061459;28;20207;-80
2022/02/05 07:55:53;;;;;;;10.50;6.95;;;;;;;2.97;100.00;100126.19;5067788;28;20214;-81
2022/02/05 07:58:20;;;;;;;10.48;7.55;;;;;;;3.24;100.00;100134.56;5071483;28;20202;-80
2022/02/05 08:00:47;;;;;;;11.77;8.32;;;;;;;3.41;100.00;100132.44;5072556;28;20203;-81
2022/02/05 08:03:14;;;;;;;11.10;8.13;;;;;;;3.32;100.00;100132.63;5071752;28;20634;-81
2022/02/05 08:05:41;;;;;;;16.48;10.90;;;;;;;3.42;100.00;100123.56;5071578;28;20194;-81
2022/02/05 08:08:12;;;;;;;10.30;8.20;;;;;;;3.43;100.00;100127.09;5071305;28;20280;-79
2022/02/05 08:10:53;;;;;;;11.25;8.52;;;;;;;3.39;100.00;100133.38;5070772;28;20209;-78
2022/02/05 08:13:20;;;;;;;9.13;7.93;;;;;;;3.50;100.00;100126.91;5059853;28;20278;-78
2022/02/05 08:15:52;;;;;;;10.27;7.60;;;;;;;3.49;100.00;100122.50;5060059;28;20212;-80
2022/02/05 08:18:18;;;;;;;10.25;7.30;;;;;;;3.48;100.00;100120.78;5065150;28;20543;-81
2022/02/05 08:20:45;;;;;;;11.05;7.90;;;;;;;3.39;100.00;100130.72;5064764;28;20617;-80
2022/02/05 08:23:13;;;;;;;12.93;8.18;;;;;;;3.37;100.00;100130.75;5062498;28;20204;-80
2022/02/05 08:25:40;;;;;;;10.55;7.50;;;;;;;3.37;100.00;100130.75;5066370;28;20192;-83
2022/02/05 08:28:06;;;;;;;10.18;8.45;;;;;;;3.47;100.00;100142.09;5074171;28;20217;-81
2022/02/05 08:30:33;;;;;;;13.15;8.77;;;;;;;3.44;100.00;100140.38;5071952;28;20197;-81
2022/02/05 08:33:00;;;;;;;12.82;8.20;;;;;;;3.18;100.00;100150.66;5076214;28;20227;-82
2022/02/05 08:35:27;;;;;;;15.00;9.40;;;;;;;2.91;100.00;100144.94;5074966;28;20208;-81
2022/02/05 08:37:57;;;;;;;12.02;9.05;;;;;;;3.05;100.00;100139.34;5074350;28;20484;-81
2022/02/05 08:40:25;;;;;;;11.68;9.35;;;;;;;3.43;100.00;100138.59;5072231;28;20235;-80
2022/02/05 08:42:52;;;;;;;12.45;9.25;;;;;;;3.64;100.00;100133.72;5074713;28;20192;-78
2022/02/05 08:45:19;;;;;;;14.88;9.00;;;;;;;3.79;100.00;100141.41;5072966;28;20190;-80
2022/02/05 08:47:45;;;;;;;13.80;8.77;;;;;;;3.89;100.00;100150.97;5072109;28;20284;-82
2022/02/05 08:50:12;;;;;;;14.80;9.15;;;;;;;4.01;100.00;100147.13;5060446;28;20187;-79
2022/02/05 08:52:40;;;;;;;23.05;9.93;;;;;;;4.08;100.00;100146.09;5066969;28;20249;-80
2022/02/05 08:55:08;;;;;;;13.20;9.32;;;;;;;3.99;100.00;100142.75;5063217;28;20351;-76
2022/02/05 08:57:39;;;;;;;15.60;8.70;;;;;;;4.10;100.00;100154.94;5071956;28;20220;-77
2022/02/05 09:00:14;;;;;;;20.45;10.52;;;;;;;4.12;100.00;100150.44;5072194;28;20594;-77
2022/02/05 09:02:47;;;;;;;12.23;9.57;;;;;;;4.13;100.00;100146.84;5056699;28;20626;-78
2022/02/05 09:05:18;;;;;;;16.05;10.00;;;;;;;4.26;100.00;100147.44;5069197;28;20622;-81
2022/02/05 09:07:45;;;;;;;17.45;11.45;;;;;;;4.12;100.00;100146.91;5076231;28;20283;-79
2022/02/05 09:10:26;;;;;;;16.83;11.80;;;;;;;4.23;100.00;100144.88;5077959;28;20192;-78
2022/02/05 09:13:12;;;;;;;18.52;10.68;;;;;;;4.36;100.00;100142.75;5072195;28;20278;-78
2022/02/05 09:15:39;;;;;;;13.65;9.52;;;;;;;4.48;100.00;100150.50;5063804;28;20299;-78
2022/02/05 09:18:06;;;;;;;22.48;11.75;;;;;;;4.82;100.00;100149.66;5070513;28;20271;-77
2022/02/05 09:20:33;;;;;;;18.02;10.75;;;;;;;4.94;100.00;100157.31;5059757;28;20252;-78
2022/02/05 09:23:01;;;;;;;17.52;10.30;;;;;;;5.21;100.00;100157.50;5070886;28;20280;-78
2022/02/05 09:25:29;;;;;;;15.98;10.65;;;;;;;5.53;100.00;100161.94;5063073;28;20197;-78
2022/02/05 09:27:57;;;;;;;12.98;9.95;;;;;;;5.40;100.00;100152.53;5064113;28;20247;-79
2022/02/05 09:30:41;;;;;;;17.90;10.57;;;;;;;5.38;100.00;100159.69;5064522;28;20406;-77
2022/02/05 09:33:08;;;;;;;16.55;10.18;;;;;;;5.27;100.00;100157.34;5074456;28;20238;-83
2022/02/05 09:35:34;;;;;;;15.98;9.27;;;;;;;5.21;100.00;100165.50;5073737;28;20223;-77
2022/02/05 09:38:01;;;;;;;15.18;11.27;;;;;;;5.13;100.00;100157.72;5073747;28;20196;-82
2022/02/05 09:40:28;;;;;;;20.00;10.95;;;;;;;5.24;100.00;100168.09;5072706;28;20262;-78
2022/02/05 09:42:54;;;;;;;18.30;10.88;;;;;;;5.32;100.00;100157.22;5072397;28;20285;-78
2022/02/05 09:45:22;;;;;;;14.60;10.52;;;;;;;5.36;100.00;100161.53;5074952;28;20289;-78
2022/02/05 09:47:51;;;;;;;14.85;10.00;;;;;;;5.46;100.00;100159.50;5063891;28;20672;-78
2022/02/05 09:50:20;;;;;;;15.82;10.20;;;;;;;5.37;100.00;100165.97;5056135;28;20200;-78
2022/02/05 09:52:51;;;;;;;17.67;10.10;;;;;;;5.45;100.00;100155.97;5065785;28;20538;-79
2022/02/05 09:55:18;;;;;;;18.17;10.40;;;;;;;5.39;100.00;100166.81;5066593;28;20552;-78
2022/02/05 09:57:44;;;;;;;14.52;10.60;;;;;;;5.42;100.00;100170.25;5063094;28;20189;-78
2022/02/05 10:00:16;;;;;;;28.65;17.67;;;;;;;5.55;100.00;100167.25;5062408;28;20191;-78
2022/02/05 10:02:54;;;;;;;21.88;14.95;;;;;;;5.39;100.00;100172.16;5063469;28;20280;-79
2022/02/05 10:05:23;;;;;;;30.48;19.70;;;;;;;5.70;100.00;100181.94;5063239;28;20555;-79
2022/02/05 10:07:54;;;;;;;12.63;10.27;;;;;;;5.92;100.00;100179.53;5066968;28;20189;-79
2022/02/05 10:10:21;;;;;;;15.00;10.55;;;;;;;5.98;100.00;100182.94;5065109;28;20197;-78
2022/02/05 10:13:07;;;;;;;16.20;9.85;;;;;;;6.36;99.92;100188.03;5064245;28;20268;-79
2022/02/05 10:15:33;;;;;;;15.63;11.30;;;;;;;6.77;96.02;100200.06;5063308;28;20207;-79
2022/02/05 10:18:03;;;;;;;13.18;9.15;;;;;;;6.77;94.11;100194.72;5060455;28;20214;-78
2022/02/05 10:20:30;;;;;;;15.52;9.20;;;;;;;6.74;93.53;100189.47;5070619;28;20184;-78
2022/02/05 10:23:07;;;;;;;17.42;9.35;;;;;;;6.71;94.84;100194.03;5060070;28;20622;-79
2022/02/05 10:25:34;;;;;;;11.95;9.40;;;;;;;6.66;95.13;100189.72;5055193;28;20482;-78
2022/02/05 10:28:01;;;;;;;17.25;11.35;;;;;;;6.54;96.84;100189.25;5058502;28;20235;-79
2022/02/05 10:30:30;;;;;;;10.80;8.48;;;;;;;6.66;95.96;100184.34;5071623;28;20281;-78
2022/02/05 10:33:06;;;;;;;13.50;8.65;;;;;;;6.68;94.96;100195.03;5065537;28;20718;-80
2022/02/05 10:35:43;;;;;;;14.20;9.20;;;;;;;6.63;95.95;100196.97;5063319;28;20267;-78
2022/02/05 10:38:30;;;;;;;17.02;10.65;;;;;;;6.42;98.07;100187.81;5074232;28;20546;-78
2022/02/05 10:43:45;;;;;;;14.32;9.32;;;;;;;6.30;100.00;100193.56;5061903;28;20193;-79
2022/02/05 10:46:12;;;;;;;18.55;10.50;;;;;;;6.19;100.00;100192.09;5069160;28;20216;-78
2022/02/05 10:48:43;;;;;;;19.30;10.15;;;;;;;6.26;100.00;100182.97;5063737;28;20188;-78
2022/02/05 10:51:10;;;;;;;12.80;8.90;;;;;;;6.44;100.00;100185.97;5065322;28;20702;-79
2022/02/05 10:53:42;;;;;;;16.58;8.32;;;;;;;6.56;100.00;100187.41;5057798;28;20575;-79
2022/02/05 10:56:13;;;;;;;14.75;9.65;;;;;;;6.58;100.00;100190.88;5062623;28;20211;-79
2022/02/05 11:06:57;;;;;;;15.43;8.70;;;;;;;6.68;100.00;100187.00;5063904;28;20197;-78
2022/02/05 11:09:24;;;;;;;13.50;6.70;;;;;;;6.60;100.00;100178.34;5069254;28;20283;-78
2022/02/05 11:20:05;;;;;;;10.45;5.80;;;;;;;6.62;100.00;100179.16;5056807;28;20193;-78
2022/02/05 11:22:37;;;;;;;7.20;5.10;;;;;;;6.72;100.00;100171.72;5062072;28;20227;-78
2022/02/05 11:25:06;;;;;;;7.93;5.70;;;;;;;6.73;100.00;100173.47;5056935;28;20216;-79
2022/02/05 11:27:33;;;;;;;12.50;5.97;;;;;;;6.83;100.00;100166.88;5053432;28;20205;-78
2022/02/05 11:30:33;;;;;;;13.45;7.45;;;;;;;6.78;100.00;100175.03;5052930;28;20192;-79
2022/02/05 11:33:04;;;;;;;8.40;6.60;;;;;;;6.33;100.00;100183.66;5053343;28;20192;-78
2022/02/05 11:35:45;;;;;;;14.15;7.10;;;;;;;6.17;100.00;100171.66;5057240;28;20220;-77
2022/02/05 11:38:12;;;;;;;14.20;7.25;;;;;;;6.29;100.00;100187.34;5061458;28;20197;-78
2022/02/05 11:40:52;;;;;;;13.63;7.03;;;;;;;6.33;100.00;100189.00;5058146;28;20625;-77
2022/02/05 11:43:21;;;;;;;10.32;6.68;;;;;;;6.36;100.00;100178.22;5068204;28;20196;-77
2022/02/05 11:46:14;;;;;;;14.98;7.55;;;;;;;6.67;100.00;100183.44;5063675;28;20283;-78
2022/02/05 11:48:45;;;;;;;14.50;6.82;;;;;;;6.79;100.00;100190.19;5052656;28;20201;-77
2022/02/05 11:51:16;;;;;;;16.88;7.88;;;;;;;7.25;100.00;100180.56;5063605;28;20193;-78
2022/02/05 11:54:14;;;;;;;11.73;7.43;;;;;;;7.79;100.00;100181.31;5057066;28;20276;-78
2022/02/05 11:56:55;;;;;;;13.35;6.90;;;;;;;7.96;100.00;100175.34;5060330;28;20541;-77
2022/02/05 11:59:25;;;;;;;13.02;6.75;;;;;;;8.10;100.00;100181.03;5060968;28;20185;-78
2022/02/05 12:02:11;;;;;;;11.60;6.68;;;;;;;7.90;100.00;100183.59;5060487;28;20648;-78
2022/02/05 12:04:38;;;;;;;16.02;7.55;;;;;;;7.84;100.00;100173.09;5064091;28;20280;-78
2022/02/05 12:07:09;;;;;;;12.88;6.70;;;;;;;7.62;100.00;100173.91;5062732;28;20613;-78
2022/02/05 12:09:37;;;;;;;12.07;6.95;;;;;;;7.30;100.00;100183.09;5057259;28;20216;-79
2022/02/05 12:12:37;;;;;;;10.25;6.20;;;;;;;6.74;100.00;100176.09;5062890;28;20199;-79
2022/02/05 12:15:23;;;;;;;13.00;7.30;;;;;;;6.29;100.00;100173.06;5055611;28;20243;-78
2022/02/05 12:18:15;;;;;;;14.57;7.93;;;;;;;6.21;100.00;100162.63;5060083;28;20199;-79
2022/02/05 12:21:25;;;;;;;11.65;6.82;;;;;;;6.53;100.00;100163.41;5061644;28;20193;-77
2022/02/05 12:26:47;;;;;;;11.73;5.82;;;;;;;6.48;100.00;100156.41;5006613;28;20525;-78
2022/02/05 12:29:29;;;;;;;11.57;4.65;;;;;;;6.72;100.00;100155.66;5053530;28;20189;-79
2022/02/05 12:32:05;;;;;;;6.57;4.20;;;;;;;6.59;100.00;100158.72;5078604;28;20211;-78
2022/02/05 12:34:34;;;;;;;17.88;10.13;;;;;;;6.81;100.00;100155.34;5072080;28;20185;-78
2022/02/05 12:37:03;;;;;;;8.13;4.40;;;;;;;6.63;100.00;100159.53;5071988;28;20208;-77
2022/02/05 12:39:34;;;;;;;9.60;5.15;;;;;;;6.92;100.00;100152.28;5071838;28;20221;-78
2022/02/05 12:42:06;;;;;;;10.98;5.10;;;;;;;7.07;100.00;100147.28;5071699;28;20207;-79
2022/02/05 12:44:36;;;;;;;8.43;5.30;;;;;;;7.29;100.00;100141.19;5072049;28;20184;-77
2022/02/05 12:47:07;;;;;;;10.63;5.22;;;;;;;7.30;100.00;100138.44;5071253;28;20203;-79
2022/02/05 12:49:47;;;;;;;12.60;5.32;;;;;;;7.14;100.00;100134.56;5054084;28;20708;-77
2022/02/05 12:52:16;;;;;;;8.80;4.88;;;;;;;7.08;100.00;100146.38;5053542;28;20193;-78
2022/02/05 12:54:52;;;;;;;8.55;5.80;;;;;;;7.37;100.00;100141.78;5051785;28;20284;-79
2022/02/05 12:57:20;;;;;;;11.38;5.32;;;;;;;7.20;100.00;100150.41;5054348;28;20213;-77
2022/02/05 12:59:47;;;;;;;12.18;5.07;;;;;;;7.12;100.00;100147.13;5051723;28;20288;-78
2022/02/05 13:02:16;;;;;;;10.35;5.40;;;;;;;7.47;100.00;100153.03;5051922;28;20205;-78
2022/02/05 13:04:46;;;;;;;14.25;5.50;;;;;;;7.51;100.00;100160.03;5051946;28;20268;-77
2022/02/05 13:07:18;;;;;;;12.50;5.50;;;;;;;7.72;100.00;100159.22;5051667;28;20269;-77
2022/02/05 13:09:50;;;;;;;11.23;5.10;;;;;;;7.88;100.00;100145.25;5051573;28;20209;-77
2022/02/05 13:12:19;;;;;;;9.93;5.63;;;;;;;7.46;100.00;100138.78;5051472;28;20196;-79
2022/02/05 13:14:51;;;;;;;11.05;6.25;;;;;;;7.44;100.00;100131.69;5061837;28;20280;-78
2022/02/05 13:17:35;;;;;;;8.73;5.90;;;;;;;7.50;100.00;100128.78;5053588;28;20231;-78
2022/02/05 13:25:41;;;;;;;8.95;5.85;;;;;;;7.65;100.00;100116.63;5014709;28;20188;-78
2022/02/05 13:33:57;;;;;;;9.38;5.72;;;;;;;7.35;100.00;100115.94;5055467;28;20268;-77
2022/02/05 13:36:37;;;;;;;9.93;5.15;;;;;;;7.51;100.00;100117.16;5055632;28;20221;-77
2022/02/05 13:39:16;;;;;;;15.35;6.15;;;;;;;7.63;100.00;100110.47;5055031;28;20217;-78
2022/02/05 13:41:51;;;;;;;8.23;5.57;;;;;;;7.41;100.00;100105.03;5054978;28;20205;-77
2022/02/05 13:44:21;;;;;;;10.57;5.85;;;;;;;7.37;100.00;100106.97;5054897;28;20181;-77
2022/02/05 13:47:12;;;;;;;14.80;8.50;;;;;;;7.69;100.00;100094.16;5055325;28;20679;-78
2022/02/05 13:49:39;;;;;;;7.57;4.53;;;;;;;7.88;100.00;100094.31;5054988;28;20211;-78
2022/02/05 13:52:08;;;;;;;8.23;4.53;;;;;;;8.03;100.00;100101.75;5054967;28;20273;-77